createdAt,value
2023-03-26T02:16:14.142Z,6.60
2023-03-26T02:18:41.689Z,6.60
2023-03-26T02:21:12.493Z,6.60
2023-03-26T02:23:41.997Z,6.60
2023-03-26T02:26:10.276Z,6.60
2023-03-26T02:28:37.676Z,6.60
2023-03-26T02:31:05.316Z,6.60
2023-03-26T02:33:32.528Z,6.60
2023-03-26T02:36:01.972Z,6.60
2023-03-26T02:38:29.994Z,6.60
2023-03-26T02:40:56.763Z,6.60
2023-03-26T02:43:23.685Z,6.70
2023-03-26T02:45:50.693Z,6.60
2023-03-26T02:48:17.912Z,6.70
2023-03-26T02:50:46.006Z,6.90
2023-03-26T02:53:13.605Z,6.80
2023-03-26T02:55:40.466Z,6.80
2023-03-26T02:58:07.264Z,6.70
2023-03-26T03:00:35.015Z,6.80
2023-03-26T03:03:04.350Z,6.80
2023-03-26T03:05:32.359Z,6.70
2023-03-26T03:07:59.444Z,6.70
2023-03-26T03:10:28.080Z,6.70
2023-03-26T03:12:55.270Z,6.60
2023-03-26T03:15:22.004Z,6.60
2023-03-26T03:17:48.761Z,6.60
2023-03-26T03:20:16.595Z,6.60
2023-03-26T03:22:44.130Z,6.60
2023-03-26T03:25:14.342Z,6.60
2023-03-26T03:27:42.788Z,6.60
2023-03-26T03:30:12.360Z,6.70
2023-03-26T03:32:39.320Z,6.70
2023-03-26T03:35:06.555Z,6.70
2023-03-26T03:37:33.282Z,6.70
2023-03-26T03:39:59.965Z,6.70
2023-03-26T03:42:27.543Z,6.80
2023-03-26T03:44:54.291Z,6.70
2023-03-26T03:47:22.862Z,6.70
2023-03-26T03:49:50.203Z,6.60
2023-03-26T03:52:18.109Z,6.50
2023-03-26T03:54:45.104Z,6.50
2023-03-26T03:57:11.894Z,6.50
2023-03-26T03:59:38.699Z,6.60
2023-03-26T04:02:21.246Z,6.60
2023-03-26T04:04:50.220Z,6.60
2023-03-26T04:07:17.082Z,6.60
2023-03-26T04:09:43.830Z,6.60
2023-03-26T04:12:10.779Z,6.50
2023-03-26T04:14:37.512Z,6.50
2023-03-26T04:17:05.395Z,6.50
2023-03-26T04:19:32.161Z,6.40
2023-03-26T04:22:02.339Z,6.40
2023-03-26T04:24:29.697Z,6.40
2023-03-26T04:27:00.852Z,6.40
2023-03-26T04:29:30.616Z,6.40
2023-03-26T04:32:06.742Z,6.30
2023-03-26T04:34:34.286Z,6.30
2023-03-26T04:37:05.044Z,6.30
2023-03-26T04:39:34.232Z,6.30
2023-03-26T04:42:00.918Z,6.30
2023-03-26T04:44:30.256Z,6.40
2023-03-26T04:46:56.985Z,6.30
2023-03-26T04:49:23.736Z,6.30
2023-03-26T04:51:50.655Z,6.30
2023-03-26T04:54:24.333Z,6.20
2023-03-26T04:56:57.171Z,6.30
2023-03-26T04:59:29.920Z,6.20
2023-03-26T05:01:57.944Z,6.30
2023-03-26T05:04:24.985Z,6.30
2023-03-26T05:06:52.266Z,6.30
2023-03-26T05:09:19.838Z,6.30
2023-03-26T05:11:46.540Z,6.30
2023-03-26T05:14:13.196Z,6.30
2023-03-26T05:16:41.374Z,6.20
2023-03-26T05:19:08.909Z,6.20
2023-03-26T05:21:36.081Z,6.20
2023-03-26T05:24:03.093Z,6.20
2023-03-26T05:26:29.862Z,6.10
2023-03-26T05:28:56.872Z,6.00
2023-03-26T05:31:23.992Z,5.90
2023-03-26T05:33:50.941Z,5.90
2023-03-26T05:36:19.136Z,5.90
2023-03-26T05:38:49.353Z,5.90
2023-03-26T05:41:17.014Z,5.90
2023-03-26T05:43:44.972Z,5.90
2023-03-26T05:46:13.183Z,6.00
2023-03-26T05:48:39.949Z,6.00
2023-03-26T05:51:07.802Z,6.10
2023-03-26T05:53:34.660Z,6.20
2023-03-26T05:56:02.022Z,6.40
2023-03-26T05:58:30.874Z,6.40
2023-03-26T06:01:08.733Z,6.40
2023-03-26T06:03:38.384Z,6.50
2023-03-26T06:06:10.382Z,6.50
2023-03-26T06:08:37.084Z,6.50
2023-03-26T06:11:08.005Z,6.50
2023-03-26T06:13:34.815Z,6.60
2023-03-26T06:16:01.578Z,6.70
2023-03-26T06:18:28.284Z,6.70
2023-03-26T06:20:55.260Z,6.70
2023-03-26T06:23:23.127Z,6.80
2023-03-26T06:25:49.913Z,6.60
2023-03-26T06:28:17.092Z,6.70
2023-03-26T06:30:44.128Z,6.50
2023-03-26T06:33:10.939Z,6.20
2023-03-26T06:35:37.830Z,6.30
2023-03-26T06:38:04.868Z,6.30
2023-03-26T06:40:33.020Z,6.40
2023-03-26T06:43:09.331Z,6.30
2023-03-26T06:45:38.011Z,6.20
2023-03-26T06:48:05.345Z,6.20
2023-03-26T06:50:32.762Z,6.10
2023-03-26T06:52:59.932Z,6.10
2023-03-26T06:55:26.662Z,6.10
2023-03-26T06:57:54.875Z,6.00
2023-03-26T07:00:22.166Z,6.00
2023-03-26T07:02:48.976Z,6.10
2023-03-26T07:05:15.968Z,6.10
2023-03-26T07:07:45.995Z,6.20
2023-03-26T07:10:13.697Z,6.30
2023-03-26T07:12:41.572Z,6.30
2023-03-26T07:15:09.384Z,6.50
2023-03-26T07:17:36.267Z,6.60
2023-03-26T07:20:03.853Z,6.70
2023-03-26T07:22:30.889Z,6.70
2023-03-26T07:24:57.921Z,6.70
2023-03-26T07:27:51.866Z,6.70
2023-03-26T07:30:47.733Z,6.70
2023-03-26T07:33:21.284Z,6.70
2023-03-26T07:36:20.360Z,6.80
2023-03-26T07:39:08.261Z,6.90
2023-03-26T07:41:51.134Z,7.00
2023-03-26T07:44:30.823Z,7.10
2023-03-26T07:47:01.681Z,7.20
2023-03-26T07:49:29.448Z,7.20
2023-03-26T07:51:56.385Z,7.20
2023-03-26T07:54:23.401Z,7.20
2023-03-26T07:56:59.121Z,7.10
2023-03-26T07:59:43.889Z,7.10
2023-03-26T08:02:19.444Z,7.00
2023-03-26T08:05:04.218Z,7.00
2023-03-26T08:07:45.689Z,7.00
2023-03-26T08:10:16.980Z,7.10
2023-03-26T08:12:52.297Z,7.10
2023-03-26T08:15:45.139Z,7.10
2023-03-26T08:18:48.699Z,7.10
2023-03-26T08:21:28.720Z,7.20
2023-03-26T08:24:39.022Z,7.30
2023-03-26T08:27:15.328Z,7.30
2023-03-26T08:29:51.667Z,7.30
2023-03-26T08:32:20.322Z,7.30
2023-03-26T08:34:47.320Z,7.20
2023-03-26T08:37:14.565Z,7.10
2023-03-26T08:39:42.319Z,7.20
2023-03-26T08:42:30.298Z,7.20
2023-03-26T08:45:09.320Z,7.20
2023-03-26T08:48:01.776Z,7.10
2023-03-26T08:50:43.603Z,7.10
2023-03-26T08:53:41.203Z,7.10
2023-03-26T08:56:20.196Z,7.10
2023-03-26T08:58:57.542Z,7.10
2023-03-26T09:01:42.214Z,7.00
2023-03-26T09:04:15.455Z,6.70
2023-03-26T09:07:01.712Z,6.70
2023-03-26T09:09:40.827Z,6.70
2023-03-26T09:12:26.258Z,6.70
2023-03-26T09:15:31.813Z,6.70
2023-03-26T09:18:36.236Z,6.70
2023-03-26T09:21:25.544Z,6.60
2023-03-26T09:24:20.925Z,6.80
2023-03-26T09:27:02.142Z,6.70
2023-03-26T09:30:14.167Z,6.70
2023-03-26T09:32:47.077Z,6.70
2023-03-26T09:35:36.219Z,6.70
2023-03-26T09:38:33.595Z,6.70
2023-03-26T09:41:18.340Z,6.70
2023-03-26T09:43:56.748Z,6.60
2023-03-26T09:46:36.752Z,6.50
2023-03-26T09:49:09.090Z,6.60
2023-03-26T09:52:14.391Z,6.40
2023-03-26T09:55:08.322Z,6.30
2023-03-26T09:57:59.964Z,6.30
2023-03-26T10:00:32.622Z,6.20
2023-03-26T10:03:28.313Z,6.10
2023-03-26T10:06:18.850Z,6.00
2023-03-26T10:09:00.591Z,6.10
2023-03-26T10:11:40.655Z,6.20
2023-03-26T10:14:21.410Z,6.20
2023-03-26T10:17:06.730Z,6.30
2023-03-26T10:20:11.079Z,6.20
2023-03-26T10:22:54.680Z,6.20
2023-03-26T10:25:46.409Z,6.10
2023-03-26T10:28:47.376Z,6.20
2023-03-26T10:31:34.186Z,6.30
2023-03-26T10:34:28.532Z,6.40
2023-03-26T10:37:01.690Z,6.40
2023-03-26T10:39:43.846Z,6.40
2023-03-26T10:42:23.942Z,6.40
2023-03-26T10:45:10.886Z,6.50
2023-03-26T10:48:10.750Z,6.60
2023-03-26T10:50:56.345Z,6.70
2023-03-26T10:53:47.087Z,6.70
2023-03-26T10:56:34.678Z,6.90
2023-03-26T10:59:07.114Z,7.00
2023-03-26T11:02:14.285Z,7.10
2023-03-26T11:05:04.085Z,7.40
2023-03-26T11:07:57.357Z,7.60
2023-03-26T11:10:48.970Z,7.70
2023-03-26T11:13:18.705Z,7.80
2023-03-26T11:16:06.225Z,7.80
2023-03-26T11:18:48.804Z,7.70
2023-03-26T11:21:22.238Z,7.70
2023-03-26T11:24:22.607Z,7.50
2023-03-26T11:27:14.966Z,7.40
2023-03-26T11:29:51.835Z,7.40
2023-03-26T11:32:25.660Z,7.50
2023-03-26T11:35:00.847Z,7.40
2023-03-26T11:37:40.455Z,7.40
2023-03-26T11:40:15.532Z,7.50
2023-03-26T11:42:43.852Z,7.60
2023-03-26T11:45:18.874Z,7.70
2023-03-26T11:47:45.522Z,7.90
2023-03-26T11:50:27.043Z,7.80
2023-03-26T11:53:10.574Z,7.80
2023-03-26T11:55:44.296Z,7.60
2023-03-26T11:58:31.219Z,7.50
2023-03-26T12:00:59.038Z,7.60
2023-03-26T12:03:30.194Z,7.60
2023-03-26T12:05:59.790Z,7.60
2023-03-26T12:08:39.629Z,7.70
2023-03-26T12:11:11.598Z,7.70
2023-03-26T12:13:44.685Z,7.80
2023-03-26T12:16:17.936Z,7.80
2023-03-26T12:18:46.803Z,7.80
2023-03-26T12:21:17.684Z,7.80
2023-03-26T12:24:01.293Z,7.80
2023-03-26T12:26:41.663Z,7.80
2023-03-26T12:29:14.561Z,7.90
2023-03-26T12:32:13.092Z,7.90
2023-03-26T12:34:40.338Z,7.90
2023-03-26T12:37:28.128Z,7.80
2023-03-26T12:40:25.618Z,7.80
2023-03-26T12:44:55.724Z,7.80
2023-03-26T12:45:48.108Z,7.80
2023-03-26T12:48:35.496Z,7.70
2023-03-26T12:51:23.844Z,7.70
2023-03-26T12:54:03.147Z,7.70
2023-03-26T12:56:47.711Z,7.70
2023-03-26T12:59:29.433Z,7.80
2023-03-26T13:02:02.247Z,7.80
2023-03-26T13:04:37.487Z,7.70
2023-03-26T13:07:27.714Z,7.70
2023-03-26T13:10:33.572Z,7.70
2023-03-26T13:13:16.851Z,7.70
2023-03-26T13:15:52.524Z,7.70
2023-03-26T13:18:25.196Z,7.70
2023-03-26T13:21:15.362Z,7.70
2023-03-26T13:24:20.926Z,7.70
2023-03-26T13:26:57.001Z,7.80
2023-03-26T13:29:46.601Z,7.80
2023-03-26T13:32:24.484Z,7.80
2023-03-26T13:34:53.941Z,7.80
2023-03-26T13:37:44.450Z,7.80
2023-03-26T13:40:17.083Z,7.80
2023-03-26T13:43:04.241Z,7.80
2023-03-26T13:46:07.871Z,7.90
2023-03-26T13:48:49.967Z,7.90
2023-03-26T13:51:38.573Z,7.90
2023-03-26T13:54:16.265Z,8.00
2023-03-26T13:56:52.300Z,8.10
2023-03-26T13:59:44.275Z,8.10
2023-03-26T14:02:35.676Z,8.10
2023-03-26T14:05:19.568Z,8.20
2023-03-26T14:08:04.187Z,8.30
2023-03-26T14:10:40.344Z,8.30
2023-03-26T14:13:43.573Z,8.40
2023-03-26T14:16:16.272Z,8.30
2023-03-26T14:19:11.512Z,8.40
2023-03-26T14:21:50.606Z,8.40
2023-03-26T14:24:27.693Z,8.50
2023-03-26T14:27:21.791Z,8.50
2023-03-26T14:30:04.943Z,8.60
2023-03-26T14:33:03.135Z,8.60
2023-03-26T14:35:58.695Z,8.60
2023-03-26T14:39:05.687Z,8.70
2023-03-26T14:41:55.893Z,8.70
2023-03-26T14:44:47.576Z,8.80
2023-03-26T14:47:18.254Z,8.80
2023-03-26T14:50:04.051Z,8.90
2023-03-26T14:52:50.836Z,8.80
2023-03-26T14:55:42.488Z,8.80
2023-03-26T14:58:29.976Z,8.70
2023-03-26T15:01:46.797Z,7.40
2023-03-26T15:04:29.772Z,5.80
2023-03-26T15:07:18.867Z,5.50
2023-03-26T15:10:22.621Z,5.20
2023-03-26T15:13:22.328Z,5.20
2023-03-26T15:16:12.388Z,5.20
2023-03-26T15:19:21.841Z,5.00
2023-03-26T15:22:06.581Z,5.00
2023-03-26T15:25:15.639Z,5.00
2023-03-26T15:28:12.736Z,5.00
2023-03-26T15:31:09.735Z,5.10
2023-03-26T15:34:00.974Z,5.30
2023-03-26T15:36:50.967Z,5.50
2023-03-26T15:39:27.652Z,5.80
2023-03-26T15:42:22.528Z,5.90
2023-03-26T15:44:57.562Z,6.00
2023-03-26T15:47:47.757Z,6.10
2023-03-26T15:50:58.333Z,6.20
2023-03-26T15:53:34.937Z,6.30
2023-03-26T15:56:11.367Z,6.40
2023-03-26T15:58:55.158Z,6.50
2023-03-26T16:01:37.604Z,6.50
2023-03-26T16:04:18.050Z,6.70
2023-03-26T16:06:58.456Z,6.80
2023-03-26T16:09:42.086Z,6.90
2023-03-26T16:12:17.623Z,6.90
2023-03-26T16:14:48.273Z,6.80
2023-03-26T16:17:23.318Z,6.80
2023-03-26T16:19:50.303Z,6.80
2023-03-26T16:22:42.984Z,6.80
2023-03-26T16:25:32.595Z,6.80
2023-03-26T16:28:18.165Z,6.70
2023-03-26T16:31:04.429Z,6.70
2023-03-26T16:33:59.845Z,6.60
2023-03-26T16:36:37.523Z,6.50
2023-03-26T16:39:04.838Z,6.50
2023-03-26T16:41:33.465Z,6.40
2023-03-26T16:44:27.655Z,6.40
2023-03-26T16:47:14.188Z,6.30
2023-03-26T16:50:07.403Z,6.30
2023-03-26T16:52:58.708Z,6.30
2023-03-26T16:55:39.528Z,6.30
2023-03-26T16:58:34.396Z,6.20
2023-03-26T17:01:09.169Z,6.10
2023-03-26T17:03:50.039Z,6.00
2023-03-26T17:06:45.680Z,5.90
2023-03-26T17:10:01.166Z,5.60
2023-03-26T17:12:33.874Z,5.20
2023-03-26T17:15:19.300Z,5.00
2023-03-26T17:18:09.962Z,4.80
2023-03-26T17:20:57.727Z,4.30
2023-03-26T17:23:53.404Z,4.00
2023-03-26T17:26:23.573Z,3.80
2023-03-26T17:28:57.291Z,3.60
2023-03-26T17:31:35.289Z,3.50
2023-03-26T17:34:40.128Z,3.40
2023-03-26T17:37:16.928Z,3.40
2023-03-26T17:39:43.675Z,3.40
2023-03-26T17:42:16.104Z,3.40
2023-03-26T17:44:51.009Z,3.40
2023-03-26T17:47:33.178Z,3.40
2023-03-26T17:50:22.596Z,3.30
2023-03-26T17:53:31.451Z,3.30
2023-03-26T17:56:03.690Z,3.30
2023-03-26T17:58:42.552Z,3.40
2023-03-26T18:01:32.216Z,3.40
2023-03-26T18:04:02.882Z,3.50
2023-03-26T18:06:57.022Z,3.50
2023-03-26T18:09:58.835Z,3.50
2023-03-26T18:12:37.813Z,3.60
2023-03-26T18:15:10.509Z,3.70
2023-03-26T18:17:45.850Z,3.70
2023-03-26T18:20:28.207Z,3.70
2023-03-26T18:22:55.473Z,3.90
2023-03-26T18:25:27.125Z,4.00
2023-03-26T18:27:54.444Z,4.10
2023-03-26T18:30:23.447Z,4.20
2023-03-26T18:33:03.755Z,4.20
2023-03-26T18:35:42.817Z,4.20
2023-03-26T18:38:35.623Z,4.20
2023-03-26T18:41:07.977Z,4.40
2023-03-26T18:43:44.015Z,4.40
2023-03-26T18:46:13.615Z,4.40
2023-03-26T18:48:40.857Z,4.40
2023-03-26T18:51:08.436Z,4.40
2023-03-26T18:53:43.155Z,4.40
2023-03-26T18:56:29.839Z,4.40
2023-03-26T18:58:59.491Z,4.40
2023-03-26T19:01:30.711Z,4.40
2023-03-26T19:03:59.804Z,4.30
2023-03-26T19:06:26.824Z,4.20
2023-03-26T19:08:54.336Z,4.20
2023-03-26T19:11:21.488Z,4.30
2023-03-26T19:14:16.825Z,4.20
2023-03-26T19:16:49.256Z,4.30
2023-03-26T19:19:20.331Z,4.30
2023-03-26T19:21:48.146Z,4.30
2023-03-26T19:24:16.322Z,4.30
2023-03-26T19:26:44.340Z,4.20
2023-03-26T19:29:17.350Z,4.20
2023-03-26T19:31:44.073Z,4.40
2023-03-26T19:34:19.978Z,4.20
2023-03-26T19:37:01.590Z,4.20
2023-03-26T19:39:37.225Z,4.20
2023-03-26T19:42:06.423Z,4.20
2023-03-26T19:44:33.420Z,4.20
2023-03-26T19:47:07.864Z,4.20
2023-03-26T19:49:54.119Z,4.20
2023-03-26T19:52:33.159Z,4.20
2023-03-26T19:55:21.846Z,4.20
2023-03-26T19:57:49.164Z,4.20
2023-03-26T20:00:16.157Z,4.10
2023-03-26T20:02:48.665Z,4.10
2023-03-26T20:05:27.225Z,4.10
2023-03-26T20:07:57.407Z,4.10
2023-03-26T20:10:24.497Z,4.00
2023-03-26T20:12:51.267Z,4.00
2023-03-26T20:15:25.710Z,4.00
2023-03-26T20:17:54.410Z,4.00
2023-03-26T20:20:27.095Z,4.00
2023-03-26T20:22:54.534Z,4.10
2023-03-26T20:25:25.162Z,4.00
2023-03-26T20:27:55.278Z,4.10
2023-03-26T20:30:36.999Z,4.20
2023-03-26T20:33:11.917Z,4.10
2023-03-26T20:35:39.805Z,4.10
2023-03-26T20:38:09.351Z,4.20
2023-03-26T20:40:36.250Z,4.20
2023-03-26T20:43:02.930Z,4.20
2023-03-26T20:45:29.788Z,4.20
2023-03-26T20:47:57.222Z,4.20
2023-03-26T20:50:24.391Z,4.20
2023-03-26T20:52:51.208Z,4.20
2023-03-26T20:55:23.545Z,4.20
2023-03-26T20:57:50.984Z,4.30
2023-03-26T21:00:20.040Z,4.20
2023-03-26T21:02:47.890Z,4.20
2023-03-26T21:05:15.106Z,4.20
2023-03-26T21:07:43.269Z,4.20
2023-03-26T21:10:14.351Z,4.20
2023-03-26T21:12:47.203Z,4.20
2023-03-26T21:15:22.816Z,4.30
2023-03-26T21:17:52.095Z,4.20
2023-03-26T21:20:20.026Z,4.30
2023-03-26T21:23:03.985Z,4.30
2023-03-26T21:26:01.387Z,4.30
2023-03-26T21:28:41.982Z,4.30
2023-03-26T21:31:15.619Z,4.40
2023-03-26T21:33:42.561Z,4.30
2023-03-26T21:36:10.976Z,4.30
2023-03-26T21:38:38.710Z,4.30
2023-03-26T21:41:05.789Z,4.30
2023-03-26T21:43:32.568Z,4.30
2023-03-26T21:46:01.125Z,4.30
2023-03-26T21:48:29.327Z,4.30
2023-03-26T21:51:02.265Z,4.30
2023-03-26T21:53:29.340Z,4.30
2023-03-26T21:56:18.914Z,4.30
2023-03-26T21:58:51.483Z,4.20
2023-03-26T22:01:33.407Z,4.20
2023-03-26T22:04:16.897Z,4.20
2023-03-26T22:06:55.463Z,4.20
2023-03-26T22:09:33.846Z,4.10
2023-03-26T22:12:03.386Z,4.10
2023-03-26T22:14:30.145Z,4.10
2023-03-26T22:16:56.878Z,4.10
2023-03-26T22:19:23.573Z,4.10
2023-03-26T22:21:54.299Z,4.10
2023-03-26T22:24:21.065Z,4.10
2023-03-26T22:26:48.047Z,4.10
2023-03-26T22:29:14.887Z,4.20
2023-03-26T22:31:42.699Z,4.10
2023-03-26T22:34:09.540Z,4.20
2023-03-26T22:36:37.971Z,4.10
2023-03-26T22:39:06.952Z,4.20
2023-03-26T22:41:33.669Z,4.20
2023-03-26T22:44:09.478Z,4.20
2023-03-26T22:46:48.786Z,4.20
2023-03-26T22:49:15.806Z,4.20
2023-03-26T22:51:42.595Z,4.20
2023-03-26T22:54:09.545Z,4.10
2023-03-26T22:56:37.128Z,4.10
2023-03-26T22:59:03.940Z,4.00
2023-03-26T23:01:30.663Z,4.00
2023-03-26T23:03:57.899Z,4.00
2023-03-26T23:06:25.099Z,4.00
2023-03-26T23:08:51.892Z,3.90
2023-03-26T23:11:21.830Z,3.90
2023-03-26T23:13:49.146Z,3.80
2023-03-26T23:16:17.182Z,3.80
2023-03-26T23:18:44.043Z,3.80
2023-03-26T23:21:16.023Z,3.80
2023-03-26T23:23:42.924Z,3.80
2023-03-26T23:26:10.766Z,3.80
2023-03-26T23:28:38.259Z,3.90
2023-03-26T23:31:07.289Z,3.90
2023-03-26T23:33:36.536Z,3.90
2023-03-26T23:36:08.755Z,3.90
2023-03-26T23:38:44.078Z,4.00
2023-03-26T23:41:14.797Z,4.00
2023-03-26T23:43:54.153Z,4.00
2023-03-26T23:46:30.648Z,4.00
2023-03-26T23:49:00.035Z,3.90
2023-03-26T23:51:26.963Z,3.80
2023-03-26T23:53:53.701Z,3.90
2023-03-26T23:56:21.020Z,3.80
2023-03-26T23:58:48.868Z,3.80
